createdAt,value
2023-02-01T05:58:32.003Z,28.62
2023-02-01T06:00:31.979Z,28.57
2023-02-01T06:01:31.971Z,28.52
2023-02-01T06:02:32.029Z,28.58
2023-02-01T06:03:32.026Z,28.51
2023-02-01T06:04:31.942Z,28.54
2023-02-01T06:05:31.931Z,28.53
2023-02-01T06:07:31.918Z,28.56
2023-02-01T06:08:31.907Z,28.50
2023-02-01T06:09:31.893Z,28.33
2023-02-01T06:10:31.893Z,28.13
2023-02-01T06:11:33.043Z,27.92
2023-02-01T06:12:31.870Z,27.79
2023-02-01T06:13:34.298Z,27.69
2023-02-01T06:14:31.849Z,27.55
2023-02-01T06:15:31.869Z,27.51
2023-02-01T06:17:31.821Z,27.65
2023-02-01T06:18:32.032Z,27.90
2023-02-01T06:19:31.812Z,27.98
2023-02-01T06:20:31.804Z,28.12
2023-02-01T06:22:31.770Z,28.42
2023-02-01T06:23:32.034Z,28.57
2023-02-01T06:24:31.753Z,28.64
2023-02-01T06:25:31.743Z,28.76
2023-02-01T06:26:31.834Z,28.90
2023-02-01T06:27:31.730Z,29.01
2023-02-01T06:28:32.037Z,29.04
2023-02-01T06:29:31.706Z,29.14
2023-02-01T06:30:31.705Z,29.14
2023-02-01T06:31:32.192Z,29.30
2023-02-01T06:32:31.683Z,29.24
2023-02-01T06:33:31.674Z,29.33
2023-02-01T06:34:31.663Z,29.38
2023-02-01T06:35:32.037Z,29.40
2023-02-01T06:36:31.655Z,29.36
2023-02-01T06:37:31.642Z,29.50
2023-02-01T06:38:31.655Z,29.50
2023-02-01T06:39:31.611Z,29.44
2023-02-01T06:40:32.036Z,29.48
2023-02-01T06:41:31.597Z,29.52
2023-02-01T06:42:31.644Z,29.51
2023-02-01T06:43:31.586Z,29.56
2023-02-01T06:44:32.061Z,29.57
2023-02-01T06:46:31.648Z,29.56
2023-02-01T06:48:31.529Z,29.66
2023-02-01T06:49:31.544Z,29.66
2023-02-01T06:50:31.581Z,29.71
2023-02-01T06:51:31.565Z,29.90
2023-02-01T06:52:31.490Z,29.86
2023-02-01T06:53:31.500Z,29.87
2023-02-01T06:54:31.479Z,29.99
2023-02-01T06:55:31.475Z,30.10
2023-02-01T06:56:31.550Z,30.38
2023-02-01T06:57:31.505Z,30.38
2023-02-01T06:58:31.447Z,30.44
2023-02-01T07:00:31.577Z,30.48
2023-02-01T07:01:31.576Z,30.84
2023-02-01T07:02:31.403Z,30.91
2023-02-01T07:03:31.446Z,30.86
2023-02-01T07:04:31.375Z,31.01
2023-02-01T07:05:31.575Z,30.98
2023-02-01T07:06:31.636Z,31.05
2023-02-01T07:08:31.678Z,30.94
2023-02-01T07:09:31.521Z,31.17
2023-02-01T07:10:31.653Z,31.10
2023-02-01T07:11:31.860Z,31.17
2023-02-01T07:12:31.649Z,31.23
2023-02-01T07:13:31.577Z,31.28
2023-02-01T07:14:31.303Z,31.31
2023-02-01T07:15:31.282Z,31.42
2023-02-01T07:16:31.318Z,31.36
2023-02-01T07:17:31.257Z,31.47
2023-02-01T07:18:31.547Z,31.43
2023-02-01T07:19:31.261Z,31.32
2023-02-01T07:20:31.229Z,31.38
2023-02-01T07:21:31.233Z,31.40
2023-02-01T07:22:31.236Z,31.69
2023-02-01T07:23:31.590Z,31.62
2023-02-01T07:24:31.580Z,31.42
2023-02-01T07:25:31.192Z,31.57
2023-02-01T07:27:31.181Z,31.63
2023-02-01T07:29:31.663Z,31.83
2023-02-01T07:30:31.743Z,31.88
2023-02-01T07:32:31.213Z,32.12
2023-02-01T07:33:31.109Z,32.02
2023-02-01T07:34:31.132Z,31.92
2023-02-01T07:35:31.590Z,31.86
2023-02-01T07:37:31.078Z,31.76
2023-02-01T07:39:31.060Z,31.77
2023-02-01T07:40:31.777Z,31.92
2023-02-01T07:41:31.094Z,31.87
2023-02-01T07:42:31.406Z,31.83
2023-02-01T07:43:31.374Z,31.94
2023-02-01T07:44:31.113Z,32.27
2023-02-01T07:45:31.113Z,32.11
2023-02-01T07:46:31.077Z,32.01
2023-02-01T07:47:31.094Z,31.51
2023-02-01T07:48:30.969Z,31.34
2023-02-01T07:49:31.069Z,30.28
2023-02-01T07:50:30.967Z,29.97
2023-02-01T07:51:30.978Z,29.50
2023-02-01T07:52:30.938Z,28.20
2023-02-01T07:53:30.919Z,27.68
2023-02-01T07:54:31.117Z,27.57
2023-02-01T07:55:30.926Z,27.67
2023-02-01T07:56:30.906Z,26.91
2023-02-01T07:57:30.881Z,26.58
2023-02-01T07:58:30.888Z,27.16
2023-02-01T07:59:31.070Z,26.58
2023-02-01T08:00:30.864Z,26.69
2023-02-01T08:01:30.870Z,25.15
2023-02-01T08:02:30.947Z,25.26
2023-02-01T08:03:30.835Z,26.51
2023-02-01T08:04:30.827Z,26.06
2023-02-01T08:05:31.086Z,25.49
2023-02-01T08:06:30.795Z,25.50
2023-02-01T08:07:30.823Z,25.87
2023-02-01T08:08:30.786Z,26.58
2023-02-01T08:09:30.774Z,26.79
2023-02-01T08:10:31.096Z,26.98
2023-02-01T08:11:30.786Z,27.25
2023-02-01T08:12:30.740Z,27.50
2023-02-01T08:13:30.733Z,27.61
2023-02-01T08:14:30.746Z,27.85
2023-02-01T08:15:31.103Z,28.09
2023-02-01T08:16:30.795Z,28.18
2023-02-01T08:17:31.090Z,28.52
2023-02-01T08:18:30.713Z,28.63
2023-02-01T08:19:30.680Z,28.79
2023-02-01T08:20:30.803Z,29.03
2023-02-01T08:22:30.764Z,29.13
2023-02-01T08:23:30.666Z,29.10
2023-02-01T08:24:30.632Z,29.17
2023-02-01T08:25:30.625Z,29.25
2023-02-01T08:26:31.182Z,29.19
2023-02-01T08:27:30.605Z,29.31
2023-02-01T08:28:31.085Z,29.26
2023-02-01T08:30:31.093Z,29.44
2023-02-01T08:38:30.621Z,30.25
2023-02-01T08:43:30.658Z,30.15
2023-02-01T08:55:30.622Z,27.91
2023-02-01T09:15:30.736Z,21.42
2023-02-01T10:30:32.791Z,27.44
2023-02-01T23:07:22.326Z,28.79
2023-02-01T23:08:22.306Z,28.80
2023-02-01T23:09:22.311Z,28.77
2023-02-01T23:10:22.291Z,28.77
2023-02-01T23:11:22.291Z,28.73
2023-02-01T23:12:22.271Z,28.79
2023-02-01T23:13:22.261Z,28.81
2023-02-01T23:14:22.257Z,28.83
2023-02-01T23:15:22.446Z,28.78
2023-02-01T23:16:22.240Z,28.76
2023-02-01T23:17:22.222Z,28.77
2023-02-01T23:18:22.214Z,28.74
2023-02-01T23:19:22.238Z,28.80
2023-02-01T23:20:22.191Z,28.78
2023-02-01T23:21:22.221Z,28.74
2023-02-01T23:22:22.174Z,28.78
2023-02-01T23:23:22.164Z,28.76
2023-02-01T23:24:22.152Z,28.77
2023-02-01T23:25:22.499Z,28.80
2023-02-01T23:26:22.188Z,28.80
2023-02-01T23:27:22.125Z,28.77
2023-02-01T23:28:22.113Z,28.81
2023-02-01T23:29:22.103Z,28.76
2023-02-01T23:30:22.099Z,28.74
2023-02-01T23:31:22.168Z,28.76
2023-02-01T23:32:22.080Z,28.78
2023-02-01T23:33:22.068Z,28.70
2023-02-01T23:34:22.058Z,28.70
2023-02-01T23:35:22.321Z,28.74
2023-02-01T23:36:22.040Z,28.73
2023-02-01T23:37:22.029Z,28.76
2023-02-01T23:38:22.018Z,28.72
2023-02-01T23:39:22.012Z,28.73
2023-02-01T23:40:21.997Z,28.77
2023-02-01T23:41:21.992Z,28.74
2023-02-01T23:42:21.982Z,28.73
2023-02-01T23:43:21.968Z,28.77
2023-02-01T23:44:21.959Z,28.70
2023-02-01T23:45:22.426Z,28.70
2023-02-01T23:46:21.981Z,28.74
2023-02-01T23:47:21.951Z,28.76
2023-02-01T23:48:21.923Z,28.76
2023-02-01T23:49:21.917Z,28.73
2023-02-01T23:50:21.906Z,28.73
2023-02-01T23:51:21.918Z,28.74
2023-02-01T23:52:21.894Z,28.73
2023-02-01T23:53:21.882Z,28.74
2023-02-01T23:54:21.867Z,28.76
2023-02-01T23:55:22.090Z,28.74
2023-02-01T23:56:21.850Z,28.73
2023-02-01T23:57:21.839Z,28.78
2023-02-01T23:58:21.830Z,28.73
2023-02-01T23:59:21.825Z,28.75
